Vichigasta, Argentina
Current Conditions -  °F | °C
As of 11:00 AM on Sunday 25 Jan 2015 (Local Time) from SCSE Reporting Station
Overcast Overcast  
Wind Chill: 64°   Ceiling: 1800
Heat Index: 64°   Visibility: 6mi
Dew Point: 57°   Wind: 2mph
Humidity: 77%   Direction: NA
Pressure: 29.97"   Gusts: NA
Location:  29.48°S, 67.52°W
Report Text: SCSE 251400Z VRB02KT 9999 OVC018 18/14 Q1015
Loading
Personal Weather Stations






























Interactive Weather Map New forecast layout! Learn more

10-Day Weather Forecast

Advertisements
Track Severe Weather on mobile